M I D A S
Marine Information and Data Acquisition System
Tripno 1780 of the Zeeleeuw from 2009-09-18 06:49:10 to 2009-09-18 15:24:44
Back to CruiseResearch ActivitiesStationsMapUnderway DataData graphs

EquipmentUnitsComment
TimeDGPSUTC
LatitudeDGPSDM.mWGS84
LongitudeDGPSDM.mWGS84
HeadingGyrodeg 
SOGDGPSknotsSpeed over ground
COGDGPSdegCourse over ground
DepthEcho soundermeters200 kHz
Missing or incorrect values are displayed as -999
Navigation data collected by the RV Zeeleeuw from 2009-09-18 06:34:36 to 2009-09-18 15:24:44
Time Latitude Longitude Heading SOG COG Depth
2009-09-18 06:35:39 51°13.663 2°55.958 127.1 0.1 197 6.6
2009-09-18 06:36:38 51°13.663 2°55.959 127.3 0.1 355 6.5
2009-09-18 06:37:38 51°13.663 2°55.959 125.5 0.1 17 6.5
2009-09-18 06:38:38 51°13.663 2°55.959 126 -999 79 6.5
2009-09-18 06:39:38 51°13.663 2°55.959 128.7 -999 314 6.5
2009-09-18 06:40:38 51°13.663 2°55.959 128.9 -999 314 6.5
2009-09-18 06:41:37 51°13.663 2°55.959 128.5 -999 250 6.7
2009-09-18 06:42:38 51°13.662 2°55.96 123.7 -999 180 6.6
2009-09-18 06:43:38 51°13.661 2°55.96 116 0.1 202 6.7
2009-09-18 06:44:38 51°13.664 2°55.948 110.8 1.5 292 -999
2009-09-18 06:45:41 51°13.68 2°55.875 107.8 3.6 286 -999
2009-09-18 06:46:41 51°13.695 2°55.783 97.6 3.3 280 -999
2009-09-18 06:47:40 51°13.7 2°55.748 61.3 0.8 35 11.9
2009-09-18 06:48:38 51°13.696 2°55.741 24.6 1.5 213 -999
2009-09-18 06:49:40 51°13.718 2°55.719 335.7 4.3 332 10.8
2009-09-18 06:50:38 51°13.805 2°55.65 337.1 7.1 335 10.8
2009-09-18 06:51:38 51°13.921 2°55.564 337.6 8.2 335 10.5
2009-09-18 06:52:37 51°14.045 2°55.471 335.8 8.4 333 10.1
2009-09-18 06:53:38 51°14.17 2°55.365 332 8.3 328 10
2009-09-18 06:54:37 51°14.277 2°55.211 314.6 9.5 312 10
2009-09-18 06:55:37 51°14.37 2°54.989 303.9 10.3 303 8.5
2009-09-18 06:56:38 51°14.49 2°54.77 327 11 321 9.5
2009-09-18 06:57:38 51°14.616 2°54.551 312.4 11.5 304 9.3
2009-09-18 06:58:38 51°14.717 2°54.289 308.1 11.6 300 9.4
2009-09-18 06:59:38 51°14.812 2°54.024 307.5 11.5 299 8.7
2009-09-18 07:00:38 51°14.907 2°53.758 309.3 11.5 302 8.9
2009-09-18 07:01:38 51°15.004 2°53.498 308.8 11.4 300 8.7
2009-09-18 07:02:38 51°15.098 2°53.233 308.6 11.5 300 9.3
2009-09-18 07:03:38 51°15.192 2°52.966 308.9 11.6 299 9.9
2009-09-18 07:04:38 51°15.287 2°52.7 309 11.6 299 9.9
2009-09-18 07:05:38 51°15.384 2°52.434 309 11.6 298 10.5
2009-09-18 07:06:38 51°15.477 2°52.163 309.1 11.9 297 11.1
2009-09-18 07:07:38 51°15.571 2°51.887 309.5 11.8 301 11.7
2009-09-18 07:08:38 51°15.667 2°51.62 309.6 11.5 299 11.4
2009-09-18 07:09:38 51°15.763 2°51.355 309.4 11.5 301 12.1
2009-09-18 07:10:38 51°15.859 2°51.089 309.6 11.5 301 12.2
2009-09-18 07:11:38 51°15.959 2°50.834 312.7 11.2 307 12.3
2009-09-18 07:12:38 51°16.069 2°50.595 317.2 11.1 308 9.9
2009-09-18 07:13:38 51°16.188 2°50.377 322.8 10.8 315 9
2009-09-18 07:14:38 51°16.317 2°50.176 326.7 10.8 318 10.1
2009-09-18 07:15:38 51°16.458 2°50.003 335.1 10.6 327 10.6
2009-09-18 07:16:38 51°16.605 2°49.845 335.3 10.7 326 12.2
2009-09-18 07:17:38 51°16.755 2°49.693 339 10.4 329 11.1
2009-09-18 07:18:38 51°16.9 2°49.555 342 9.9 331 8.9
2009-09-18 07:19:38 51°17.046 2°49.443 344.8 9.9 333 9.9
2009-09-18 07:20:38 51°17.193 2°49.319 344.1 10 332 11.2
2009-09-18 07:21:38 51°17.342 2°49.193 343.1 10.2 332 11.9
2009-09-18 07:22:38 51°17.492 2°49.063 343.3 10.2 331 11.1
2009-09-18 07:23:38 51°17.641 2°48.93 343.6 10.2 331 10.2
2009-09-18 07:24:38 51°17.795 2°48.803 343.6 10.4 333 9.9
2009-09-18 07:25:38 51°17.951 2°48.677 343.8 10.5 332 9.3
2009-09-18 07:26:38 51°18.105 2°48.544 340 10.8 330 10
2009-09-18 07:27:38 51°18.261 2°48.401 339.7 10.8 330 9.5
2009-09-18 07:28:38 51°18.418 2°48.26 340.9 10.9 332 11.2
2009-09-18 07:29:38 51°18.572 2°48.109 338.1 10.9 328 13
2009-09-18 07:30:38 51°18.721 2°47.945 336.7 10.8 326 14.4
2009-09-18 07:31:38 51°18.868 2°47.779 336.9 10.8 325 17
2009-09-18 07:32:38 51°19.014 2°47.608 337.1 10.8 324 18.1
2009-09-18 07:33:38 51°19.159 2°47.438 337.6 10.7 324 19.6
2009-09-18 07:34:38 51°19.304 2°47.269 336.9 10.8 324 20.5
2009-09-18 07:35:38 51°19.45 2°47.1 337.4 10.8 323 21.2
2009-09-18 07:36:38 51°19.596 2°46.931 337.4 10.9 324 20.4
2009-09-18 07:37:38 51°19.742 2°46.764 337.9 10.8 324 18.8
2009-09-18 07:38:38 51°19.891 2°46.599 338.2 10.8 325 17.5
2009-09-18 07:39:38 51°20.041 2°46.437 339 10.8 329 13.8
2009-09-18 07:40:38 51°20.198 2°46.296 343.1 10.8 331 15.3
2009-09-18 07:41:38 51°20.356 2°46.157 342.7 10.9 330 15.9
2009-09-18 07:42:38 51°20.515 2°46.016 341.9 11.1 330 21.2
2009-09-18 07:43:38 51°20.672 2°45.877 341.9 10.9 331 23
2009-09-18 07:44:37 51°20.828 2°45.739 342.5 11 332 23.2
2009-09-18 07:45:38 51°20.988 2°45.598 342.7 10.9 331 25.6
2009-09-18 07:46:38 51°21.145 2°45.455 341.4 10.9 330 25.6
2009-09-18 07:47:37 51°21.3 2°45.318 342.4 10.8 329 25.1
2009-09-18 07:48:38 51°21.459 2°45.177 343.4 10.8 331 23.5
2009-09-18 07:49:38 51°21.615 2°45.041 342.5 10.6 331 22.6
2009-09-18 07:50:38 51°21.772 2°44.907 342 10.6 333 21.9
2009-09-18 07:51:38 51°21.925 2°44.771 342.1 10.5 332 20.9
2009-09-18 07:52:37 51°22.074 2°44.637 341.9 10.6 331 22.9
2009-09-18 07:53:38 51°22.231 2°44.497 342.7 10.6 331 24.6
2009-09-18 07:54:38 51°22.386 2°44.361 342.3 10.6 330 25.3
2009-09-18 07:55:38 51°22.537 2°44.223 342.6 10.5 332 26.1
2009-09-18 07:56:38 51°22.691 2°44.087 342.1 10.7 328 26.1
2009-09-18 07:57:38 51°22.843 2°43.944 342 10.6 330 25.9
2009-09-18 07:58:37 51°22.995 2°43.803 342.2 10.7 330 24.2
2009-09-18 07:59:38 51°23.151 2°43.658 342.5 10.6 330 25.8
2009-09-18 08:00:38 51°23.305 2°43.516 342.3 10.8 328 25.1
2009-09-18 08:01:37 51°23.459 2°43.382 342.9 10.9 330 25.8
2009-09-18 08:02:38 51°23.62 2°43.243 342.4 10.8 330 26.9
2009-09-18 08:03:37 51°23.774 2°43.104 342.3 10.7 332 26.4
2009-09-18 08:04:38 51°23.935 2°42.965 343.1 10.8 333 26.3
2009-09-18 08:05:37 51°24.087 2°42.833 344 10.6 335 26.9
2009-09-18 08:06:38 51°24.251 2°42.713 346.7 10.7 337 23.6
2009-09-18 08:07:38 51°24.413 2°42.596 346.5 10.7 336 22.8
2009-09-18 08:08:38 51°24.574 2°42.498 353.2 10.1 343 24.5
2009-09-18 08:09:38 51°24.739 2°42.428 355 10.4 345 24.1
2009-09-18 08:10:38 51°24.903 2°42.349 354.6 10.2 343 23.4
2009-09-18 08:11:38 51°25.067 2°42.271 354.5 10.3 343 23.4
2009-09-18 08:12:38 51°25.231 2°42.192 354.1 10.4 343 22.7
2009-09-18 08:13:38 51°25.392 2°42.09 345.6 10.6 331 25.5
2009-09-18 08:14:38 51°25.546 2°41.937 338.3 11 326 26
2009-09-18 08:15:38 51°25.698 2°41.776 337.4 10.9 326 23.2
2009-09-18 08:16:38 51°25.852 2°41.625 341.2 10.7 332 24.4
2009-09-18 08:17:38 51°26.011 2°41.489 342.8 10.7 333 26.7
2009-09-18 08:18:38 51°26.167 2°41.351 343.4 10.7 330 25.9
2009-09-18 08:19:38 51°26.323 2°41.213 343.3 10.8 334 29.5
2009-09-18 08:20:38 51°26.48 2°41.078 345.5 10.5 334 31.3
2009-09-18 08:21:38 51°26.636 2°40.949 345.6 10.6 331 31.5
2009-09-18 08:22:38 51°26.794 2°40.824 345.5 10.7 334 31.8
2009-09-18 08:23:38 51°26.952 2°40.7 346.2 10.5 334 31.7
2009-09-18 08:24:38 51°27.108 2°40.577 346 10.4 334 32.4
2009-09-18 08:25:38 51°27.265 2°40.452 343.8 10.4 333 32.1
2009-09-18 08:26:38 51°27.422 2°40.332 345.7 10.4 336 31.7
2009-09-18 08:27:38 51°27.58 2°40.212 345.9 10.5 335 32.2
2009-09-18 08:28:37 51°27.733 2°40.094 344.9 10.2 334 32.2
2009-09-18 08:29:38 51°27.896 2°40.024 2 9.8 352 32.7
2009-09-18 08:30:49 51°28.078 2°40.071 23.3 9.3 16 31.3
2009-09-18 08:31:58 51°28.25 2°40.154 23.3 9.5 16 33
2009-09-18 08:32:58 51°28.395 2°40.235 28.9 9 24 34.3
2009-09-18 08:33:58 51°28.534 2°40.338 30.3 9.2 22 35
2009-09-18 08:34:58 51°28.675 2°40.443 29.9 9.4 27 36.4
2009-09-18 08:35:58 51°28.814 2°40.549 34.4 9.2 35 37.1
2009-09-18 08:36:58 51°28.911 2°40.734 57.3 9.2 57 34.2
2009-09-18 08:37:58 51°28.99 2°40.948 57.3 9.4 58 34.1
2009-09-18 08:38:58 51°29.077 2°41.157 54.5 9.5 56 32.5
2009-09-18 08:39:58 51°29.167 2°41.362 53.6 9.4 54 34.1
2009-09-18 08:40:58 51°29.251 2°41.576 58.8 9.4 60 32
2009-09-18 08:41:58 51°29.329 2°41.796 59.6 9.5 60 33.8
2009-09-18 08:42:58 51°29.406 2°42.015 58.2 9.6 59 31.3
2009-09-18 08:43:58 51°29.489 2°42.234 58.3 9.6 59 35.1
2009-09-18 08:44:58 51°29.572 2°42.454 58.1 9.7 59 33.5
2009-09-18 08:45:58 51°29.654 2°42.678 58.5 9.7 60 34.8
2009-09-18 08:46:58 51°29.738 2°42.896 57.9 9.6 58 31.8
2009-09-18 08:47:58 51°29.821 2°43.116 57.6 9.7 59 30
2009-09-18 08:48:58 51°29.903 2°43.334 58.3 9.7 57 32.3
2009-09-18 08:49:58 51°29.985 2°43.556 58.4 9.6 58 30.4
2009-09-18 08:50:58 51°30.068 2°43.777 58.2 9.7 60 29.3
2009-09-18 08:51:58 51°30.15 2°43.996 57.8 9.6 58 33.4
2009-09-18 08:52:58 51°30.234 2°44.216 58.4 9.7 59 32.7
2009-09-18 08:53:58 51°30.316 2°44.44 58.4 9.8 59 32.3
2009-09-18 08:54:58 51°30.4 2°44.662 58.8 9.7 59 31.7
2009-09-18 08:55:58 51°30.483 2°44.884 58.2 9.7 61 31
2009-09-18 08:56:58 51°30.564 2°45.105 57.6 9.6 58 31.1
2009-09-18 08:57:58 51°30.645 2°45.328 59.2 9.6 60 31.3
2009-09-18 08:58:58 51°30.729 2°45.547 58.3 9.6 57 35.4
2009-09-18 08:59:58 51°30.815 2°45.767 57.4 9.7 56 32.5
2009-09-18 09:00:58 51°30.898 2°45.989 57.4 9.5 59 30
2009-09-18 09:01:58 51°30.982 2°46.209 57.5 9.7 57 30.4
2009-09-18 09:02:58 51°31.068 2°46.431 57.8 9.8 59 28.3
2009-09-18 09:03:58 51°31.152 2°46.656 58.1 9.7 61 28.3
2009-09-18 09:04:58 51°31.236 2°46.878 58.9 9.8 59 28.1
2009-09-18 09:05:58 51°31.319 2°47.103 59.5 9.7 60 28.6
2009-09-18 09:06:58 51°31.402 2°47.326 58.2 9.8 61 29.2
2009-09-18 09:07:58 51°31.485 2°47.551 58.9 9.8 59 30.5
2009-09-18 09:08:58 51°31.567 2°47.777 58.1 9.8 60 32.5
2009-09-18 09:09:58 51°31.649 2°48.002 58.9 9.8 59 32.7
2009-09-18 09:10:58 51°31.734 2°48.225 57.5 9.7 59 31.5
2009-09-18 09:11:58 51°31.818 2°48.449 56.5 9.8 59 30.8
2009-09-18 09:12:58 51°31.902 2°48.673 57.5 9.7 59 30.1
2009-09-18 09:13:58 51°31.984 2°48.901 59.3 9.9 60 31.8
2009-09-18 09:14:58 51°32.066 2°49.13 58.7 9.8 60 31.4
2009-09-18 09:15:58 51°32.154 2°49.35 56.3 9.9 58 33.1
2009-09-18 09:16:58 51°32.245 2°49.569 56.5 9.8 56 32.1
2009-09-18 09:17:58 51°32.332 2°49.791 57 9.8 57 31.3
2009-09-18 09:18:58 51°32.419 2°50.012 56.8 9.8 59 30.4
2009-09-18 09:19:58 51°32.505 2°50.233 57 9.9 60 32.4
2009-09-18 09:20:58 51°32.593 2°50.452 56.4 9.8 58 29.8
2009-09-18 09:21:58 51°32.681 2°50.671 56.4 9.6 57 32.3
2009-09-18 09:22:58 51°32.769 2°50.891 55.6 9.8 57 33.7
2009-09-18 09:23:58 51°32.856 2°51.113 57.3 9.9 60 32.1
2009-09-18 09:24:58 51°32.943 2°51.338 57.7 9.9 60 31.6
2009-09-18 09:25:58 51°33.026 2°51.564 58 9.8 60 31
2009-09-18 09:26:58 51°33.113 2°51.788 57.5 10 59 33.1
2009-09-18 09:27:58 51°33.199 2°52.014 56.7 9.8 58 33.3
2009-09-18 09:28:58 51°33.286 2°52.239 57.6 10 59 32.1
2009-09-18 09:29:58 51°33.373 2°52.469 57.4 10.1 58 30.9
2009-09-18 09:30:58 51°33.461 2°52.694 57.2 9.8 58 30.4
2009-09-18 09:31:58 51°33.546 2°52.922 59 10.1 59 31.2
2009-09-18 09:32:58 51°33.634 2°53.152 56.9 10.1 57 31.8
2009-09-18 09:33:58 51°33.722 2°53.382 59 10.1 60 30.6
2009-09-18 09:34:58 51°33.804 2°53.613 59.3 10.1 61 30
2009-09-18 09:35:58 51°33.886 2°53.847 59.7 10.1 61 29.5
2009-09-18 09:36:58 51°33.967 2°54.084 59.6 9.8 60 27.7
2009-09-18 09:37:58 51°34.046 2°54.309 59.8 9.7 63 29.7
2009-09-18 09:38:58 51°34.124 2°54.536 59.5 9.7 61 30.4
2009-09-18 09:39:58 51°34.204 2°54.765 59.5 9.8 62 31.1
2009-09-18 09:40:58 51°34.283 2°54.992 58.9 9.8 61 30.8
2009-09-18 09:41:58 51°34.364 2°55.218 59.4 9.8 60 31.5
2009-09-18 09:42:58 51°34.443 2°55.448 59.9 9.8 62 32.2
2009-09-18 09:43:58 51°34.521 2°55.677 59.9 9.8 63 31.9
2009-09-18 09:44:58 51°34.6 2°55.908 59 9.8 60 33.4
2009-09-18 09:45:58 51°34.68 2°56.138 60.5 9.9 61 33.2
2009-09-18 09:46:58 51°34.76 2°56.368 59.6 9.8 61 33.8
2009-09-18 09:47:58 51°34.839 2°56.6 59.9 9.9 60 33.5
2009-09-18 09:48:58 51°34.92 2°56.83 59.2 10 61 33.9
2009-09-18 09:49:58 51°35 2°57.06 59.6 9.8 60 33.5
2009-09-18 09:50:58 51°35.081 2°57.288 59.1 9.7 60 34.7
2009-09-18 09:51:58 51°35.161 2°57.519 59.7 10 60 32.9
2009-09-18 09:52:58 51°35.242 2°57.755 60 10.1 62 34.1
2009-09-18 09:53:58 51°35.324 2°57.987 58.3 9.9 60 34
2009-09-18 09:54:58 51°35.407 2°58.219 59.7 10 61 34.2
2009-09-18 09:55:58 51°35.489 2°58.453 59.2 10.1 60 35.1
2009-09-18 09:56:58 51°35.572 2°58.688 60.5 10.2 62 30.6
2009-09-18 09:57:58 51°35.652 2°58.922 59.2 9.9 61 31.4
2009-09-18 09:58:58 51°35.685 2°59.176 90.8 10.1 96 33.9
2009-09-18 09:59:58 51°35.593 2°59.413 125.3 10.9 131 32.9
2009-09-18 10:00:58 51°35.464 2°59.623 129.3 10.9 132 31.5
2009-09-18 10:01:58 51°35.331 2°59.831 130.4 11.3 136 28
2009-09-18 10:02:58 51°35.195 3°0.044 130.2 11.5 134 26.2
2009-09-18 10:03:58 51°35.052 3°0.253 136.9 11.8 143 27.9
2009-09-18 10:04:58 51°34.888 3°0.433 143.9 12.1 152 23.8
2009-09-18 10:05:58 51°34.698 3°0.534 168.8 12.3 174 21.2
2009-09-18 10:06:58 51°34.497 3°0.504 193.8 12.4 194 19.5
2009-09-18 10:07:58 51°34.303 3°0.398 201.1 12.3 200 17
2009-09-18 10:08:58 51°34.109 3°0.289 201.4 12.3 198 15.5
2009-09-18 10:09:58 51°33.913 3°0.189 200.6 12.5 199 14.8
2009-09-18 10:10:58 51°33.721 3°0.072 205.7 12.3 202 13.9
2009-09-18 10:11:58 51°33.529 2°59.96 205.5 12.3 204 12.4
2009-09-18 10:12:58 51°33.336 2°59.839 206 12.4 203 17.5
2009-09-18 10:13:58 51°33.151 2°59.707 207.1 11.7 208 24.7
2009-09-18 10:14:58 51°32.971 2°59.583 205.6 11.9 205 31.7
2009-09-18 10:15:58 51°32.799 2°59.442 214.4 11.4 214 31.2
2009-09-18 10:16:58 51°32.637 2°59.279 218.4 11.5 214 33.5
2009-09-18 10:17:58 51°32.494 2°59.076 228.6 11.3 226 33.3
2009-09-18 10:18:58 51°32.364 2°58.855 229.2 11.5 227 34.4
2009-09-18 10:19:58 51°32.23 2°58.638 227.6 11.5 227 32.3
2009-09-18 10:20:58 51°32.095 2°58.422 227.9 11.4 225 35.8
2009-09-18 10:21:58 51°31.962 2°58.209 228.6 11.4 223 36.8
2009-09-18 10:22:58 51°31.828 2°57.998 227.8 11.3 226 35.1
2009-09-18 10:23:58 51°31.699 2°57.783 230.6 11.2 228 37.2
2009-09-18 10:24:58 51°31.572 2°57.569 228.8 11.1 225 35.9
2009-09-18 10:25:58 51°31.444 2°57.353 229.5 11.3 231 35.3
2009-09-18 10:26:58 51°31.316 2°57.143 229.3 10.9 227 33.7
2009-09-18 10:27:58 51°31.208 2°56.907 242.3 10.8 243 32.4
2009-09-18 10:28:58 51°31.137 2°56.645 257.3 10.6 257 32.9
2009-09-18 10:29:58 51°31.092 2°56.369 259.2 10.8 255 34.4
2009-09-18 10:30:58 51°31.044 2°56.094 256.8 10.7 255 33
2009-09-18 10:31:58 51°30.993 2°55.819 255.6 10.9 254 34.4
2009-09-18 10:32:58 51°30.941 2°55.545 255.7 10.5 254 29
2009-09-18 10:33:58 51°30.887 2°55.277 255.5 10.6 253 27.1
2009-09-18 10:34:58 51°30.833 2°55.008 255.5 10.7 253 25.7
2009-09-18 10:35:58 51°30.78 2°54.741 254.1 10.4 252 25
2009-09-18 10:36:58 51°30.728 2°54.474 255.6 10.5 251 29.4
2009-09-18 10:37:58 51°30.677 2°54.207 256 10.5 254 28.8
2009-09-18 10:38:58 51°30.626 2°53.941 255.2 10.4 253 28.6
2009-09-18 10:39:58 51°30.573 2°53.676 254.1 10.4 251 28.8
2009-09-18 10:40:58 51°30.523 2°53.412 255.9 10.2 253 28.9
2009-09-18 10:41:58 51°30.472 2°53.149 254.6 10.4 252 28.8
2009-09-18 10:42:58 51°30.421 2°52.887 255.7 10.2 252 29.9
2009-09-18 10:43:58 51°30.369 2°52.625 254.4 10.1 250 29.9
2009-09-18 10:44:58 51°30.32 2°52.363 255 10.3 253 29.9
2009-09-18 10:45:58 51°30.271 2°52.101 254.3 10.3 249 30.7
2009-09-18 10:46:58 51°30.224 2°51.84 255.3 10.1 253 29.3
2009-09-18 10:47:58 51°30.175 2°51.581 255.4 10.2 257 30.6
2009-09-18 10:48:58 51°30.126 2°51.319 254.4 10.3 249 28.9
2009-09-18 10:49:58 51°30.071 2°51.059 250.6 10.3 251 27.9
2009-09-18 10:50:58 51°30.01 2°50.805 250.6 10.1 250 29.9
2009-09-18 10:51:58 51°29.952 2°50.554 251.9 10.2 252 30
2009-09-18 10:52:58 51°29.892 2°50.301 251.4 10.1 246 27.9
2009-09-18 10:53:58 51°29.835 2°50.052 251.7 10 251 28.2
2009-09-18 10:54:58 51°29.778 2°49.802 250.9 10 248 29.2
2009-09-18 10:55:58 51°29.72 2°49.55 251.9 10 249 29.2
2009-09-18 10:56:58 51°29.666 2°49.299 252 10 251 27.5
2009-09-18 10:57:58 51°29.611 2°49.048 254.1 9.8 251 26
2009-09-18 10:58:58 51°29.557 2°48.799 251.1 9.9 250 27.8
2009-09-18 10:59:58 51°29.503 2°48.55 251.2 9.7 251 26.2
2009-09-18 11:00:58 51°29.451 2°48.302 252.3 9.9 253 26.1
2009-09-18 11:01:58 51°29.396 2°48.052 250.8 9.9 251 27.3
2009-09-18 11:02:58 51°29.337 2°47.808 245.6 9.9 242 23.2
2009-09-18 11:03:58 51°29.262 2°47.579 242.6 9.7 242 28.4
2009-09-18 11:04:58 51°29.185 2°47.348 242.6 9.7 241 29.8
2009-09-18 11:05:58 51°29.108 2°47.118 243.2 9.8 245 25
2009-09-18 11:06:58 51°29.033 2°46.887 243 9.6 242 26.3
2009-09-18 11:07:58 51°28.957 2°46.658 243.1 9.8 242 24.3
2009-09-18 11:08:58 51°28.884 2°46.426 242.9 9.7 242 28.3
2009-09-18 11:09:58 51°28.809 2°46.194 242.4 9.6 245 27
2009-09-18 11:10:58 51°28.736 2°45.962 243.4 9.7 244 29.3
2009-09-18 11:11:58 51°28.662 2°45.732 241.5 9.8 240 28
2009-09-18 11:12:58 51°28.589 2°45.503 243.1 9.7 242 28.8
2009-09-18 11:13:58 51°28.518 2°45.274 244.7 9.6 245 29.6
2009-09-18 11:14:58 51°28.451 2°45.04 245.8 9.6 247 30.5
2009-09-18 11:15:58 51°28.383 2°44.804 245 9.6 246 30.9
2009-09-18 11:16:58 51°28.32 2°44.568 246.5 9.6 247 31.3
2009-09-18 11:17:58 51°28.258 2°44.334 247.6 9.6 247 27
2009-09-18 11:18:58 51°28.196 2°44.1 247 9.6 243 32.3
2009-09-18 11:19:58 51°28.116 2°43.876 237.2 10 232 32.9
2009-09-18 11:20:58 51°28.013 2°43.668 229.3 10.1 223 33.8
2009-09-18 11:21:58 51°27.875 2°43.517 213 10 206 33.5
2009-09-18 11:22:58 51°27.728 2°43.396 210.7 10 206 33.3
2009-09-18 11:23:58 51°27.58 2°43.265 213.2 9.9 212 33.3
2009-09-18 11:24:58 51°27.434 2°43.134 211.6 10 213 33.6
2009-09-18 11:25:58 51°27.291 2°42.997 212.6 10 212 33.8
2009-09-18 11:26:58 51°27.146 2°42.874 204 9.8 195 33.8
2009-09-18 11:27:58 51°26.981 2°42.898 167.6 10.2 161 34
2009-09-18 11:28:58 51°26.83 2°43.038 154 10.6 147 32.1
2009-09-18 11:29:58 51°26.682 2°43.194 149.6 10.7 142 26.7
2009-09-18 11:30:58 51°26.548 2°43.389 144.6 10.8 132 27.6
2009-09-18 11:31:58 51°26.487 2°43.666 103.2 11.6 93 25.4
2009-09-18 11:32:58 51°26.529 2°43.975 70.2 12.2 67 28.6
2009-09-18 11:33:58 51°26.633 2°44.261 59.3 12.4 58 28.5
2009-09-18 11:34:58 51°26.748 2°44.538 58.6 12.5 57 30
2009-09-18 11:36:06 51°26.878 2°44.853 59.7 12.6 58 30.3
2009-09-18 11:37:07 51°26.987 2°45.142 61.5 12.4 58 31.5
2009-09-18 11:38:07 51°27.09 2°45.432 63.3 12.5 59 30.6
2009-09-18 11:39:06 51°27.192 2°45.716 62.2 12.5 60 31.6
2009-09-18 11:40:07 51°27.296 2°46.009 62.8 12.4 61 31.8
2009-09-18 11:41:07 51°27.398 2°46.297 63 12.5 60 32.5
2009-09-18 11:42:07 51°27.501 2°46.59 62.7 12.6 60 34.4
2009-09-18 11:43:07 51°27.606 2°46.879 61.6 12.5 59 34
2009-09-18 11:44:07 51°27.708 2°47.17 63.9 12.5 61 34.2
2009-09-18 11:45:07 51°27.804 2°47.466 65.2 12.6 62 32.7
2009-09-18 11:46:07 51°27.901 2°47.765 65.1 12.7 63 31.3
2009-09-18 11:47:07 51°27.998 2°48.065 64 12.6 62 30.7
2009-09-18 11:48:07 51°28.095 2°48.36 63.7 12.5 62 32.1
2009-09-18 11:49:07 51°28.195 2°48.657 64 12.7 62 28
2009-09-18 11:50:07 51°28.298 2°48.955 63.6 12.7 61 29.3
2009-09-18 11:51:07 51°28.398 2°49.251 64 12.5 62 32.2
2009-09-18 11:52:07 51°28.498 2°49.545 62.5 12.5 61 31.8
2009-09-18 11:53:07 51°28.6 2°49.838 63.8 12.7 61 29.8
2009-09-18 11:54:07 51°28.703 2°50.133 62 12.7 61 28.3
2009-09-18 11:55:07 51°28.803 2°50.43 63.1 12.7 61 28.8
2009-09-18 11:56:07 51°28.904 2°50.727 63.7 12.8 62 30
2009-09-18 11:57:07 51°29.005 2°51.026 62.5 12.7 61 30.6
2009-09-18 11:58:07 51°29.107 2°51.324 63.2 12.8 61 31.9
2009-09-18 11:59:07 51°29.21 2°51.621 63 12.8 61 31.8
2009-09-18 12:00:07 51°29.311 2°51.918 63.8 12.7 61 32.9
2009-09-18 12:01:07 51°29.414 2°52.215 63.6 12.8 62 32.8
2009-09-18 12:02:07 51°29.516 2°52.512 61.9 12.7 61 32.5
2009-09-18 12:03:07 51°29.621 2°52.805 62.2 12.8 60 32.9
2009-09-18 12:04:07 51°29.725 2°53.099 61.8 12.6 61 33.7
2009-09-18 12:05:07 51°29.829 2°53.394 62.4 12.7 61 34.2
2009-09-18 12:06:07 51°29.931 2°53.69 62.7 12.7 62 34.1
2009-09-18 12:07:07 51°30.035 2°53.985 61.1 12.7 60 33
2009-09-18 12:08:07 51°30.139 2°54.28 62.8 12.7 62 33.9
2009-09-18 12:09:07 51°30.243 2°54.575 61.9 12.7 61 35.6
2009-09-18 12:10:07 51°30.347 2°54.872 63 12.8 61 36.9
2009-09-18 12:11:07 51°30.45 2°55.167 61.8 12.7 61 38
2009-09-18 12:12:07 51°30.552 2°55.464 62.5 12.7 61 39.3
2009-09-18 12:13:07 51°30.655 2°55.761 62.2 12.8 60 38.3
2009-09-18 12:14:07 51°30.76 2°56.056 62.2 12.8 60 36.9
2009-09-18 12:15:07 51°30.865 2°56.352 62.5 12.8 61 34.6
2009-09-18 12:16:07 51°30.971 2°56.649 62.2 12.8 60 35.5
2009-09-18 12:17:07 51°31.078 2°56.946 62.4 12.8 60 33.9
2009-09-18 12:18:07 51°31.185 2°57.243 62.4 12.8 60 34.1
2009-09-18 12:19:07 51°31.293 2°57.538 61.7 12.8 59 33.8
2009-09-18 12:20:07 51°31.402 2°57.835 63 12.8 60 33.2
2009-09-18 12:21:07 51°31.512 2°58.13 62.1 12.8 60 33.1
2009-09-18 12:22:07 51°31.624 2°58.424 61.8 12.9 59 32.9
2009-09-18 12:23:07 51°31.728 2°58.723 64.7 12.8 61 32.2
2009-09-18 12:24:07 51°31.831 2°59.023 64.7 13 60 32.1
2009-09-18 12:25:07 51°31.936 2°59.323 64.1 12.9 61 32
2009-09-18 12:26:07 51°32.04 2°59.623 64.3 12.9 61 31.6
2009-09-18 12:27:07 51°32.146 2°59.922 64.4 12.8 61 31.4
2009-09-18 12:28:07 51°32.252 3°0.219 64 12.8 60 30.2
2009-09-18 12:29:07 51°32.358 3°0.514 64.4 12.7 60 28.8
2009-09-18 12:30:07 51°32.463 3°0.811 64.4 12.8 60 27.2
2009-09-18 12:31:07 51°32.57 3°1.105 64.4 12.6 61 26.9
2009-09-18 12:32:07 51°32.673 3°1.399 64.2 12.6 61 27.1
2009-09-18 12:33:07 51°32.78 3°1.689 63.3 12.5 59 25.3
2009-09-18 12:34:07 51°32.88 3°1.979 67.9 12.5 63 25.1
2009-09-18 12:35:07 51°32.964 3°2.282 71.1 12.4 66 23.9
2009-09-18 12:36:06 51°33.049 3°2.577 70.1 12.3 66 25.3
2009-09-18 12:37:07 51°33.108 3°2.89 88.7 11.9 81 20.7
2009-09-18 12:38:07 51°33.121 3°3.207 94.6 11.9 90 23
2009-09-18 12:39:21 51°33.045 3°3.551 133.7 10.9 127 24
2009-09-18 12:40:21 51°32.916 3°3.755 145.2 10.9 139 26.8
2009-09-18 12:41:21 51°32.777 3°3.948 146.7 11 139 31.2
2009-09-18 12:42:21 51°32.638 3°4.144 146.6 11 139 34.7
2009-09-18 12:43:21 51°32.503 3°4.34 146.6 10.9 137 33.5
2009-09-18 12:44:21 51°32.37 3°4.54 147.2 11 138 31
2009-09-18 12:45:22 51°32.237 3°4.743 146.7 11 135 29.7
2009-09-18 12:46:21 51°32.109 3°4.937 147.3 10.3 141 30.4
2009-09-18 12:47:21 51°31.959 3°5.018 180.1 9.3 168 30.2
2009-09-18 12:48:21 51°31.834 3°4.915 228.5 8.9 230 30.5
2009-09-18 12:49:21 51°31.753 3°4.711 239.4 9.1 244 30.9
2009-09-18 12:50:21 51°31.676 3°4.495 237.2 9.4 239 30.5
2009-09-18 12:51:21 51°31.592 3°4.286 235.2 9.2 235 29.8
2009-09-18 12:52:21 51°31.512 3°4.081 237.9 9.1 238 29.7
2009-09-18 12:53:21 51°31.432 3°3.873 237.1 9.1 235 30
2009-09-18 12:54:21 51°31.349 3°3.664 236 9.3 237 30.1
2009-09-18 12:55:21 51°31.262 3°3.457 235.9 9.3 236 30.6
2009-09-18 12:56:21 51°31.172 3°3.249 235.2 9.4 237 30.3
2009-09-18 12:57:21 51°31.085 3°3.043 235.8 9.3 235 30
2009-09-18 12:58:21 51°30.999 3°2.838 235 9.2 234 30.5
2009-09-18 12:59:21 51°30.912 3°2.639 233.5 9 236 30.2
2009-09-18 13:00:21 51°30.829 3°2.435 235.6 9.2 238 29.9
2009-09-18 13:01:21 51°30.744 3°2.231 235.8 9.1 237 30
2009-09-18 13:02:21 51°30.66 3°2.029 235.6 9.1 235 30
2009-09-18 13:03:21 51°30.575 3°1.825 235.2 9.1 236 29.9
2009-09-18 13:04:21 51°30.491 3°1.623 235 9.3 233 29.8
2009-09-18 13:05:21 51°30.408 3°1.42 234.7 9.3 236 29.8
2009-09-18 13:06:21 51°30.323 3°1.214 235.2 9.3 236 29.7
2009-09-18 13:07:21 51°30.238 3°1.006 235.4 9.3 238 29.8
2009-09-18 13:08:21 51°30.154 3°0.804 234.7 9 238 29.9
2009-09-18 13:09:21 51°30.072 3°0.6 236.2 9.1 243 29.7
2009-09-18 13:10:21 51°29.988 3°0.397 235.3 9.2 237 29
2009-09-18 13:11:21 51°29.905 3°0.197 234.1 9.1 235 29.5
2009-09-18 13:12:21 51°29.821 2°59.996 234.5 9.3 235 29.3
2009-09-18 13:13:21 51°29.739 2°59.791 235 9.2 234 29.2
2009-09-18 13:14:21 51°29.654 2°59.586 234.5 9.3 239 29.4
2009-09-18 13:15:21 51°29.572 2°59.382 235.2 9.2 239 29.5
2009-09-18 13:16:21 51°29.488 2°59.178 235.2 9.2 235 29.9
2009-09-18 13:17:21 51°29.404 2°58.974 234.9 9.3 232 29.5
2009-09-18 13:18:21 51°29.321 2°58.765 236.3 9.3 238 29.4
2009-09-18 13:19:21 51°29.239 2°58.557 235.8 9.3 239 29.2
2009-09-18 13:20:21 51°29.156 2°58.349 234.9 9.2 234 29.1
2009-09-18 13:21:21 51°29.071 2°58.144 234 9.2 237 29
2009-09-18 13:22:21 51°28.987 2°57.937 234.5 9.3 238 29.2
2009-09-18 13:23:21 51°28.902 2°57.73 234.8 9.3 238 29.5
2009-09-18 13:24:21 51°28.818 2°57.522 235.6 9.4 240 29.8
2009-09-18 13:25:21 51°28.74 2°57.304 238.2 9.4 240 29.8
2009-09-18 13:26:21 51°28.665 2°57.084 238.8 9.5 242 28.5
2009-09-18 13:27:21 51°28.59 2°56.865 238.2 9.4 242 28.7
2009-09-18 13:28:21 51°28.515 2°56.647 238.5 9.3 236 27.9
2009-09-18 13:29:21 51°28.44 2°56.429 238.9 9.3 242 28.8
2009-09-18 13:30:21 51°28.364 2°56.211 237.7 9.4 240 28.2
2009-09-18 13:31:21 51°28.287 2°55.992 237.9 9.5 240 28.9
2009-09-18 13:32:21 51°28.209 2°55.773 239 9.5 242 28.6
2009-09-18 13:33:21 51°28.132 2°55.551 238.7 9.5 241 28.4
2009-09-18 13:34:21 51°28.055 2°55.331 237.8 9.6 237 29
2009-09-18 13:35:21 51°27.978 2°55.109 238.2 9.5 244 27.5
2009-09-18 13:36:21 51°27.901 2°54.887 238.5 9.4 241 28.9
2009-09-18 13:37:21 51°27.825 2°54.668 237.8 9.4 240 27.1
2009-09-18 13:38:21 51°27.747 2°54.447 239.8 9.5 235 26.5
2009-09-18 13:39:21 51°27.667 2°54.226 238 9.4 239 26.8
2009-09-18 13:40:16 51°27.594 2°54.027 238.3 9.6 241 26
2009-09-18 13:41:23 51°27.506 2°53.78 239.5 9.4 237 24.3
2009-09-18 13:42:23 51°27.431 2°53.558 239.1 9.7 246 27.9
2009-09-18 13:43:23 51°27.352 2°53.336 239.1 9.6 242 28
2009-09-18 13:44:23 51°27.273 2°53.113 238.1 9.5 241 26.4
2009-09-18 13:45:23 51°27.195 2°52.891 238.3 9.6 240 25.9
2009-09-18 13:46:22 51°27.117 2°52.675 237.8 9.5 239 24.4
2009-09-18 13:47:23 51°27.036 2°52.454 236.9 9.3 241 23.1
2009-09-18 13:48:23 51°26.953 2°52.24 235.6 9.5 240 27.5
2009-09-18 13:49:23 51°26.867 2°52.027 235.2 9.5 240 27.9
2009-09-18 13:50:23 51°26.782 2°51.812 235.7 9.7 239 26.6
2009-09-18 13:51:23 51°26.696 2°51.598 236.9 9.6 237 26
2009-09-18 13:52:23 51°26.612 2°51.383 236.2 9.5 241 26.1
2009-09-18 13:53:23 51°26.527 2°51.169 236.2 9.6 239 28.3
2009-09-18 13:54:23 51°26.441 2°50.953 235.8 9.6 237 24.9
2009-09-18 13:55:23 51°26.357 2°50.742 236.7 9.5 231 24.9
2009-09-18 13:56:23 51°26.27 2°50.53 236 9.4 233 24.7
2009-09-18 13:57:23 51°26.186 2°50.316 237.8 9.5 239 24.6
2009-09-18 13:58:23 51°26.1 2°50.102 235.2 9.6 237 24.9
2009-09-18 13:59:23 51°26.016 2°49.887 237.5 9.6 239 24.8
2009-09-18 14:00:22 51°25.935 2°49.673 236.9 9.5 240 24.6
2009-09-18 14:01:23 51°25.849 2°49.456 235.7 9.5 237 24.5
2009-09-18 14:02:23 51°25.767 2°49.242 236.7 9.2 244 24.7
2009-09-18 14:03:23 51°25.682 2°49.032 237.6 9.5 237 25.4
2009-09-18 14:04:23 51°25.599 2°48.815 236 9.6 243 25.4
2009-09-18 14:05:23 51°25.515 2°48.598 235.9 9.6 239 25.8
2009-09-18 14:06:23 51°25.431 2°48.376 236.4 9.8 240 30
2009-09-18 14:07:23 51°25.344 2°48.152 237.8 9.8 238 29.7
2009-09-18 14:08:23 51°25.26 2°47.928 237 9.9 240 28.6
2009-09-18 14:09:23 51°25.163 2°47.717 229.9 9.8 228 28.9
2009-09-18 14:10:23 51°25.05 2°47.527 224.3 9.7 228 30.1
2009-09-18 14:11:23 51°24.935 2°47.344 225.9 9.7 219 31.8
2009-09-18 14:12:23 51°24.818 2°47.16 224.7 9.9 224 30
2009-09-18 14:13:23 51°24.702 2°46.975 224.6 9.9 223 30.7
2009-09-18 14:14:23 51°24.587 2°46.788 224.3 9.7 228 31.7
2009-09-18 14:15:23 51°24.471 2°46.599 224.7 9.8 228 30.9
2009-09-18 14:16:23 51°24.356 2°46.41 226.7 9.8 222 28.4
2009-09-18 14:17:23 51°24.242 2°46.22 226.4 9.9 225 29.4
2009-09-18 14:18:23 51°24.125 2°46.032 224.4 10 225 30.9
2009-09-18 14:19:23 51°24.005 2°45.849 217.1 9.9 219 28.1
2009-09-18 14:20:23 51°23.866 2°45.704 212.9 10 215 27.9
2009-09-18 14:21:23 51°23.707 2°45.639 184.1 10.1 182 28
2009-09-18 14:22:23 51°23.546 2°45.719 156.4 10.5 152 28.3
2009-09-18 14:23:23 51°23.395 2°45.867 151.7 10.7 145 27.7
2009-09-18 14:24:23 51°23.243 2°46.014 155.4 10.5 152 26.8
2009-09-18 14:25:23 51°23.094 2°46.162 152.7 10.6 151 26.1
2009-09-18 14:26:23 51°22.941 2°46.31 152.5 10.7 147 25.9
2009-09-18 14:27:23 51°22.794 2°46.468 150.1 10.6 146 23.1
2009-09-18 14:28:23 51°22.647 2°46.623 151.5 10.5 151 18.1
2009-09-18 14:29:23 51°22.504 2°46.786 145.9 10.6 138 21.1
2009-09-18 14:30:23 51°22.391 2°47.007 128.6 10.9 123 20.3
2009-09-18 14:31:23 51°22.318 2°47.274 115.3 11.2 110 19.4
2009-09-18 14:32:23 51°22.244 2°47.545 122.7 11.1 117 21.6
2009-09-18 14:33:23 51°22.134 2°47.781 139.3 11 134 24.6
2009-09-18 14:34:23 51°21.981 2°47.927 157.2 10.7 153 24.6
2009-09-18 14:35:23 51°21.821 2°48.054 157 10.7 152 24.4
2009-09-18 14:36:23 51°21.665 2°48.202 152.5 11 149 23.9
2009-09-18 14:37:23 51°21.512 2°48.357 151.1 10.9 146 23.7
2009-09-18 14:38:23 51°21.358 2°48.512 150.8 10.9 150 22.6
2009-09-18 14:39:23 51°21.206 2°48.667 151.8 10.8 144 21.8
2009-09-18 14:40:23 51°21.051 2°48.812 153.7 11 152 21.8
2009-09-18 14:41:23 51°20.893 2°48.948 154.6 10.7 156 22.8
2009-09-18 14:42:23 51°20.737 2°49.091 155.1 10.9 149 23.8
2009-09-18 14:43:23 51°20.582 2°49.234 153.5 10.8 149 23.3
2009-09-18 14:44:23 51°20.426 2°49.378 153.2 10.6 151 23.5
2009-09-18 14:45:23 51°20.271 2°49.522 152.8 10.7 150 21.9
2009-09-18 14:46:23 51°20.116 2°49.667 153.5 10.8 151 19.9
2009-09-18 14:47:23 51°19.962 2°49.812 151.9 10.7 150 17.6
2009-09-18 14:48:23 51°19.807 2°49.952 152.7 10.6 154 16
2009-09-18 14:49:23 51°19.649 2°50.085 154 10.7 147 14.6
2009-09-18 14:50:23 51°19.491 2°50.216 152.6 10.4 152 12.8
2009-09-18 14:51:23 51°19.333 2°50.348 153 10.6 152 12.8
2009-09-18 14:52:23 51°19.175 2°50.48 152.6 10.8 152 14
2009-09-18 14:53:23 51°19.018 2°50.615 153.8 10.7 149 15.2
2009-09-18 14:54:23 51°18.863 2°50.751 152.6 10.4 155 15.5
2009-09-18 14:55:23 51°18.706 2°50.887 153.3 10.7 155 15.2
2009-09-18 14:56:23 51°18.555 2°51.038 147.7 10.7 143 14.7
2009-09-18 14:57:23 51°18.408 2°51.205 145.2 10.6 147 13.9
2009-09-18 14:58:23 51°18.265 2°51.374 145.6 10.6 146 13.3
2009-09-18 14:59:23 51°18.118 2°51.535 146.5 10.7 146 12.2
2009-09-18 15:00:23 51°17.97 2°51.688 149.2 10.5 148 11.4
2009-09-18 15:01:23 51°17.821 2°51.841 147.4 10.5 151 11
2009-09-18 15:02:23 51°17.666 2°51.975 155.1 10.6 155 11.1
2009-09-18 15:03:23 51°17.505 2°52.096 155.9 10.6 155 12.1
2009-09-18 15:04:23 51°17.343 2°52.217 157.7 10.8 152 12.1
2009-09-18 15:05:23 51°17.183 2°52.341 155.1 10.8 150 11
2009-09-18 15:06:23 51°17.028 2°52.478 151 10.8 154 10.5
2009-09-18 15:07:23 51°16.873 2°52.615 152.7 10.8 153 10.4
2009-09-18 15:08:23 51°16.716 2°52.75 154 10.7 153 11.2
2009-09-18 15:09:23 51°16.559 2°52.891 150 10.9 149 12.3
2009-09-18 15:10:23 51°16.4 2°53.033 152.4 10.9 153 12.3
2009-09-18 15:11:23 51°16.238 2°53.168 153 11 151 12.4
2009-09-18 15:12:23 51°16.078 2°53.307 153.3 11.1 153 12.4
2009-09-18 15:13:23 51°15.914 2°53.441 152.9 11.1 148 12.3
2009-09-18 15:14:23 51°15.754 2°53.577 152 10.8 150 12.2
2009-09-18 15:15:23 51°15.592 2°53.708 151.1 10.9 148 11.8
2009-09-18 15:16:23 51°15.431 2°53.846 149.9 10.9 157 11.1
2009-09-18 15:17:23 51°15.272 2°53.985 151.2 10.9 151 9.8
2009-09-18 15:18:23 51°15.116 2°54.127 149.5 11 147 9.4
2009-09-18 15:19:23 51°14.961 2°54.27 151 11 148 9.2
2009-09-18 15:20:23 51°14.803 2°54.408 151.5 10.9 152 10.2
2009-09-18 15:21:23 51°14.656 2°54.575 142.9 10.9 144 10.4
2009-09-18 15:22:23 51°14.516 2°54.758 136.6 10.9 142 10.6
2009-09-18 15:23:23 51°14.391 2°54.964 126.7 10.8 134 10.2
2009-09-18 15:24:23 51°14.285 2°55.192 125.1 10 128 11